Terminal Aerodrome Forecast
Issued by NWS Norman, OK

Home | Current Version | Previous Version | Text Only | Print | Product List | Glossary On
Versions: 1 2 3 4 5 6 7 8 9 10 11 12 13 14 15 16 17 18 19 20 21 22 23 24 25 26 27 28 29 30 31 32 33 34
000
FTUS44 KOUN 011128
TAFSPS
TAF
KSPS 011128Z 0112/0212 13010KT P6SM SCT120 BKN250
      TEMPO 0112/0115 5SM -TSRA BR BKN050CB
     FM011500 18018G26KT P6SM SCT050 BKN150
     FM020700 18013KT P6SM BKN025=

USA.gov is the U.S. government's official web portal to all federal, state and local government web resources and services.